Time;durP1;ratioP1;P1;durP2;ratioP2;P2;SDS_P1;SDS_P2;PMS_P1;PMS_P2;Temp;Humidity;BMP_temperature;BMP_pressure;BME280_temperature;BME280_humidity;BME280_pressure;Samples;Min_cycle;Max_cycle;Signal;HPM_P1;HPM_P2
2022/04/27 00:00:39;;;;;;;265.63;50.15;;;8.60;99.90;;;7.44;100.00;97621.59;5070004;28;20928;-75
2022/04/27 00:03:05;;;;;;;235.20;49.38;;;8.60;99.90;;;7.45;100.00;97617.91;5070338;28;20400;-75
2022/04/27 00:05:32;;;;;;;237.80;49.67;;;8.60;99.90;;;7.46;100.00;97617.69;5070584;28;20404;-75
2022/04/27 00:07:59;;;;;;;254.10;52.03;;;8.60;99.90;;;7.39;100.00;97616.97;5070441;28;20400;-75
2022/04/27 00:10:27;;;;;;;251.37;50.13;;;8.50;99.90;;;7.20;100.00;97615.44;5069923;28;20950;-75
2022/04/27 00:12:53;;;;;;;216.05;46.53;;;8.30;99.90;;;7.22;100.00;97619.44;5070158;28;20435;-75
2022/04/27 00:15:23;;;;;;;258.25;51.15;;;8.30;99.90;;;7.26;100.00;97619.81;5070112;28;20399;-75
2022/04/27 00:17:49;;;;;;;257.57;51.23;;;8.40;99.90;;;7.32;100.00;97622.34;5070390;28;20416;-74
2022/04/27 00:20:15;;;;;;;276.00;57.45;;;8.40;99.90;;;7.34;100.00;97617.66;5069771;28;20455;-74
2022/04/27 00:22:41;;;;;;;289.55;58.15;;;8.50;99.90;;;7.35;100.00;97618.47;5070081;28;20892;-75
2022/04/27 00:25:08;;;;;;;282.30;57.50;;;8.50;99.90;;;7.33;100.00;97607.34;5070311;28;20427;-75
2022/04/27 00:27:35;;;;;;;267.95;52.10;;;8.40;99.90;;;7.20;100.00;97612.81;5070141;28;20393;-75
2022/04/27 00:30:02;;;;;;;253.23;51.30;;;8.30;99.90;;;7.09;100.00;97605.66;5070042;28;20490;-75
2022/04/27 00:32:28;;;;;;;256.38;51.10;;;8.30;99.90;;;7.05;100.00;97613.22;5069430;28;20451;-75
2022/04/27 00:34:54;;;;;;;238.17;46.60;;;8.20;99.90;;;6.99;100.00;97612.25;5070103;28;20428;-75
2022/04/27 00:37:20;;;;;;;252.70;52.45;;;8.20;99.90;;;7.05;100.00;97607.94;5052066;28;20424;-75
2022/04/27 00:39:46;;;;;;;286.25;56.53;;;8.20;99.90;;;7.03;100.00;97607.38;5069899;28;20494;-74
2022/04/27 00:42:15;;;;;;;281.60;55.95;;;8.20;99.90;;;6.99;100.00;97608.84;5069571;28;20483;-75
2022/04/27 00:44:44;;;;;;;285.27;59.13;;;8.10;99.90;;;7.08;100.00;97617.22;5070064;28;20396;-74
2022/04/27 00:47:10;;;;;;;306.02;59.83;;;8.20;99.90;;;6.97;100.00;97613.53;5069970;28;20417;-74
2022/04/27 00:49:36;;;;;;;279.40;55.88;;;8.10;99.90;;;6.89;100.00;97619.09;5069825;28;20392;-74
2022/04/27 00:52:02;;;;;;;257.42;52.83;;;8.00;99.90;;;6.89;100.00;97621.72;5069314;28;20482;-73
2022/04/27 00:54:29;;;;;;;276.08;55.92;;;8.00;99.90;;;6.92;100.00;97621.25;5051918;28;20501;-73
2022/04/27 00:56:55;;;;;;;280.25;59.03;;;8.00;99.90;;;6.93;100.00;97609.72;5069945;28;20534;-72
2022/04/27 00:59:23;;;;;;;268.10;53.53;;;8.10;99.90;;;6.90;100.00;97610.97;5069726;28;20507;-74
2022/04/27 01:01:50;;;;;;;315.73;62.15;;;8.10;99.90;;;6.93;100.00;97618.41;5069267;28;20580;-72
2022/04/27 01:04:16;;;;;;;281.65;53.95;;;8.10;99.90;;;6.91;100.00;97617.03;5069816;28;20400;-73
2022/04/27 01:06:42;;;;;;;266.27;54.50;;;8.00;99.90;;;6.92;100.00;97619.44;5051736;28;20462;-76
2022/04/27 01:09:08;;;;;;;257.00;52.03;;;8.10;99.90;;;6.93;100.00;97621.03;5069774;28;20449;-76
2022/04/27 01:11:35;;;;;;;301.07;57.37;;;8.10;99.90;;;6.98;100.00;97626.47;5069279;28;20511;-75
2022/04/27 01:14:01;;;;;;;261.83;52.90;;;8.10;99.90;;;7.00;100.00;97634.91;5069752;28;20452;-74
2022/04/27 01:16:26;;;;;;;257.98;53.10;;;8.20;99.90;;;7.02;100.00;97639.97;5069700;28;20482;-73
2022/04/27 01:18:54;;;;;;;280.30;54.65;;;8.20;99.90;;;7.09;100.00;97639.88;5069605;28;20407;-73
2022/04/27 01:21:22;;;;;;;309.05;59.53;;;8.20;99.90;;;7.14;100.00;97637.41;5069211;28;20397;-76
2022/04/27 01:23:48;;;;;;;299.88;57.83;;;8.20;99.90;;;7.12;100.00;97642.88;5069822;28;20855;-74
2022/04/27 01:26:14;;;;;;;314.02;61.22;;;8.30;99.90;;;7.14;100.00;97640.03;5072626;28;20412;-75
2022/04/27 01:28:40;;;;;;;330.02;62.20;;;8.20;99.90;;;7.15;100.00;97636.34;5073213;28;20456;-74
2022/04/27 01:31:08;;;;;;;295.48;55.95;;;8.30;99.90;;;7.12;100.00;97650.78;5072853;28;20738;-75
2022/04/27 01:33:34;;;;;;;244.57;50.08;;;8.20;99.90;;;7.12;100.00;97647.34;5073077;28;20523;-74
2022/04/27 01:36:01;;;;;;;295.05;54.47;;;8.30;99.90;;;7.16;100.00;97640.59;5073108;28;20394;-74
2022/04/27 01:38:33;;;;;;;269.38;52.78;;;8.30;99.90;;;7.20;100.00;97644.41;5073040;28;20431;-74
2022/04/27 01:41:00;;;;;;;254.20;48.30;;;8.30;99.90;;;7.25;100.00;97640.06;5054013;28;22181;-73
2022/04/27 01:43:25;;;;;;;277.50;50.25;;;8.40;99.90;;;7.31;100.00;97639.16;5072960;28;20415;-74
2022/04/27 01:45:51;;;;;;;270.73;51.20;;;8.50;99.90;;;7.36;100.00;97643.78;5072893;28;20431;-74
2022/04/27 01:48:18;;;;;;;335.58;58.75;;;8.50;99.90;;;7.41;100.00;97649.16;5072823;28;20791;-75
2022/04/27 01:50:44;;;;;;;362.60;64.93;;;8.50;99.90;;;7.46;100.00;97646.66;5072341;28;20819;-75
2022/04/27 01:55:56;;;;;;;391.88;65.93;;;8.60;99.90;;;7.50;100.00;97650.47;5072845;28;20468;-75
2022/04/27 01:58:24;;;;;;;407.17;67.53;;;8.60;99.90;;;7.49;100.00;97646.22;5072721;28;20477;-75
2022/04/27 02:00:51;;;;;;;349.25;61.38;;;8.60;99.90;;;7.48;100.00;97644.59;5072260;28;20525;-76
2022/04/27 02:03:18;;;;;;;342.63;63.23;;;8.60;99.90;;;7.52;100.00;97647.63;5072568;28;20446;-75
2022/04/27 02:05:45;;;;;;;429.58;69.15;;;8.60;99.90;;;7.53;100.00;97646.56;5072556;28;20399;-75
2022/04/27 02:08:11;;;;;;;368.48;60.67;;;8.60;99.90;;;7.52;100.00;97645.75;5072533;28;20407;-75
2022/04/27 02:10:38;;;;;;;366.23;62.97;;;8.60;99.90;;;7.55;100.00;97644.50;5072201;28;20399;-75
2022/04/27 02:13:06;;;;;;;349.92;61.97;;;8.70;99.90;;;7.56;100.00;97646.94;5072640;28;20400;-75
2022/04/27 02:15:32;;;;;;;361.13;63.30;;;8.70;99.90;;;7.56;100.00;97646.94;5054560;28;20452;-75
2022/04/27 02:17:58;;;;;;;458.20;75.78;;;8.70;99.90;;;7.60;100.00;97649.91;5072598;28;20504;-75
2022/04/27 02:20:24;;;;;;;378.95;68.03;;;8.70;99.90;;;7.59;100.00;97650.94;5072128;28;20442;-74
2022/04/27 02:22:51;;;;;;;392.88;68.60;;;8.70;99.90;;;7.56;100.00;97646.94;5072225;28;20396;-76
2022/04/27 02:25:17;;;;;;;428.35;72.15;;;8.70;99.90;;;7.61;100.00;97656.78;5072353;28;20404;-74
2022/04/27 02:27:43;;;;;;;431.30;72.32;;;8.70;99.90;;;7.58;100.00;97658.06;5072413;28;20888;-74
2022/04/27 02:30:12;;;;;;;332.30;59.55;;;8.70;99.90;;;7.54;100.00;97664.78;5071809;28;20876;-75
2022/04/27 02:32:39;;;;;;;396.35;69.43;;;8.60;99.90;;;7.55;100.00;97662.94;5072076;28;20978;-75
2022/04/27 02:35:06;;;;;;;432.33;70.78;;;8.60;99.90;;;7.57;100.00;97664.34;5072566;28;20389;-75
2022/04/27 02:37:32;;;;;;;367.75;63.70;;;8.70;99.90;;;7.55;100.00;97661.13;5071438;28;20867;-75
2022/04/27 02:39:59;;;;;;;341.80;60.43;;;8.60;99.90;;;7.56;100.00;97662.72;5071862;28;20900;-75
2022/04/27 02:42:26;;;;;;;376.80;62.42;;;8.70;99.90;;;7.57;100.00;97672.25;5071344;28;20392;-75
2022/04/27 02:44:51;;;;;;;411.10;65.43;;;8.70;99.90;;;7.61;100.00;97662.03;5071981;28;20947;-75
2022/04/27 02:47:19;;;;;;;397.17;65.68;;;8.70;99.90;;;7.61;100.00;97665.50;5072061;28;20396;-75
2022/04/27 02:52:30;;;;;;;409.85;72.22;;;8.70;99.90;;;7.60;100.00;97668.34;5071609;28;25130;-74
2022/04/27 02:54:56;;;;;;;388.70;71.07;;;8.70;99.90;;;7.59;100.00;97664.13;5071949;28;20434;-75
2022/04/27 02:57:22;;;;;;;377.67;67.68;;;8.70;99.90;;;7.57;100.00;97669.63;5071835;28;20400;-75
2022/04/27 02:59:48;;;;;;;375.42;62.53;;;8.70;99.90;;;7.55;100.00;97665.59;5071442;28;20418;-75
2022/04/27 03:02:15;;;;;;;373.67;65.30;;;8.70;99.90;;;7.57;100.00;97666.97;5071120;28;20386;-76
2022/04/27 03:04:42;;;;;;;397.00;65.50;;;8.70;99.90;;;7.57;100.00;97669.63;5070258;28;20411;-76
2022/04/27 03:07:08;;;;;;;461.95;72.38;;;8.70;99.90;;;7.58;100.00;97671.22;5071764;28;20472;-76
2022/04/27 03:09:35;;;;;;;298.40;58.78;;;8.70;99.90;;;7.58;100.00;97665.16;5071378;28;20396;-76
2022/04/27 03:12:01;;;;;;;416.95;71.45;;;8.70;99.90;;;7.61;100.00;97675.22;5071198;28;20768;-75
2022/04/27 03:14:29;;;;;;;365.17;65.78;;;8.70;99.90;;;7.59;100.00;97672.03;5071518;28;20440;-76
2022/04/27 03:16:56;;;;;;;299.80;59.60;;;8.70;99.90;;;7.55;100.00;97670.84;5071349;28;20394;-75
2022/04/27 03:19:22;;;;;;;393.00;65.65;;;8.70;99.90;;;7.54;100.00;97672.69;5071084;28;20413;-76
2022/04/27 03:21:50;;;;;;;374.85;62.08;;;8.60;99.90;;;7.54;100.00;97672.69;5070833;28;20439;-76
2022/04/27 03:24:16;;;;;;;395.08;63.60;;;8.60;99.90;;;7.57;100.00;97676.72;5071158;28;20421;-76
2022/04/27 03:26:42;;;;;;;366.08;60.20;;;8.70;99.90;;;7.58;100.00;97670.41;5071029;28;20408;-76
2022/04/27 03:29:08;;;;;;;338.55;62.72;;;8.70;99.90;;;7.61;100.00;97675.22;5070865;28;20391;-76
2022/04/27 03:31:34;;;;;;;338.50;59.50;;;8.70;99.90;;;7.60;100.00;97677.06;5070502;28;20449;-76
2022/04/27 03:34:00;;;;;;;317.77;58.30;;;8.70;99.90;;;7.59;100.00;97679.94;5071199;28;20403;-76
2022/04/27 03:36:27;;;;;;;408.15;70.72;;;8.70;99.90;;;7.66;100.00;97678.00;5070996;28;20435;-76
2022/04/27 03:38:54;;;;;;;391.40;69.22;;;8.70;99.90;;;7.66;100.00;97684.09;5053104;28;20407;-76
2022/04/27 03:41:22;;;;;;;322.75;60.88;;;8.70;99.90;;;7.60;100.00;97684.94;5070442;28;20402;-76
2022/04/27 03:43:50;;;;;;;364.45;62.72;;;8.70;99.90;;;7.60;100.00;97692.06;5070816;28;20393;-76
2022/04/27 03:46:16;;;;;;;289.13;57.92;;;8.70;99.90;;;7.62;100.00;97695.28;5070894;28;20392;-76
2022/04/27 03:48:43;;;;;;;343.58;59.83;;;8.70;99.90;;;7.61;100.00;97694.47;5069885;28;20414;-77
2022/04/27 03:51:09;;;;;;;301.35;56.15;;;8.70;99.90;;;7.61;100.00;97691.03;5070433;28;20432;-76
2022/04/27 03:53:35;;;;;;;281.95;51.85;;;8.70;99.90;;;7.61;100.00;97694.47;5070563;28;20456;-76
2022/04/27 03:56:02;;;;;;;272.48;54.65;;;8.70;99.90;;;7.63;100.00;97705.59;5070863;28;20395;-76
2022/04/27 03:58:28;;;;;;;321.25;57.17;;;8.70;99.90;;;7.64;100.00;97701.13;5070471;28;20424;-76
2022/04/27 04:00:54;;;;;;;391.02;65.50;;;8.70;99.90;;;7.65;100.00;97697.47;5052301;28;20446;-75
2022/04/27 04:03:20;;;;;;;243.65;50.88;;;8.70;99.90;;;7.64;100.00;97703.75;5070550;28;20403;-75
2022/04/27 04:05:46;;;;;;;259.23;49.35;;;8.70;99.90;;;7.62;100.00;97703.19;5070522;28;20439;-76
2022/04/27 04:08:12;;;;;;;310.88;56.65;;;8.70;99.90;;;7.64;100.00;97704.56;5070562;28;20403;-77
2022/04/27 04:10:38;;;;;;;267.98;51.20;;;8.70;99.90;;;7.63;100.00;97705.59;5069796;28;20403;-76
2022/04/27 04:13:06;;;;;;;347.43;58.47;;;8.70;99.90;;;7.65;100.00;97703.53;5052349;28;20396;-78
2022/04/27 04:15:32;;;;;;;267.73;52.73;;;8.70;99.90;;;7.64;100.00;97707.19;5072033;28;20408;-77
2022/04/27 04:17:58;;;;;;;297.98;56.38;;;8.70;99.90;;;7.63;100.00;97721.41;5067796;28;20468;-77
2022/04/27 04:20:24;;;;;;;267.13;52.47;;;8.70;99.90;;;7.64;100.00;97711.66;5069651;28;20419;-76
2022/04/27 04:22:50;;;;;;;298.77;54.08;;;8.70;99.90;;;7.63;100.00;97713.50;5070256;28;20412;-74
2022/04/27 04:30:46;;;;;;;316.20;56.63;;;8.70;99.90;;;7.67;100.00;97711.19;5069698;28;25125;-73
2022/04/27 04:33:12;;;;;;;332.80;59.10;;;8.70;99.90;;;7.70;100.00;97723.94;5070120;28;20651;-74
2022/04/27 04:35:38;;;;;;;355.40;62.72;;;8.80;99.90;;;7.69;100.00;97727.59;5070060;28;20471;-74
2022/04/27 04:38:04;;;;;;;278.25;52.45;;;8.70;99.90;;;7.65;100.00;97726.44;5070105;28;20446;-74
2022/04/27 04:40:30;;;;;;;284.30;50.28;;;8.70;99.90;;;7.62;100.00;97732.16;5069497;28;20422;-74
2022/04/27 04:42:56;;;;;;;338.88;55.50;;;8.70;99.90;;;7.64;100.00;97736.19;5069979;28;20400;-74
2022/04/27 04:45:23;;;;;;;341.77;58.38;;;8.70;99.90;;;7.69;100.00;97740.78;5070037;28;20399;-74
2022/04/27 04:47:51;;;;;;;272.15;50.08;;;8.70;99.90;;;7.68;100.00;97749.69;5069846;28;20483;-74
2022/04/27 04:50:17;;;;;;;306.55;50.95;;;8.80;99.90;;;7.69;100.00;97757.38;5060813;28;20403;-74
2022/04/27 04:52:43;;;;;;;330.35;57.28;;;8.80;99.90;;;7.73;100.00;97752.50;5076357;22;20419;-76
2022/04/27 04:55:09;;;;;;;295.20;53.80;;;8.80;99.90;;;7.72;100.00;97754.31;5050076;28;20492;-76
2022/04/27 04:57:35;;;;;;;261.90;50.53;;;8.80;99.90;;;7.72;100.00;97762.22;5049971;28;20409;-76
2022/04/27 05:00:02;;;;;;;382.98;61.08;;;8.80;99.90;;;7.75;100.00;97761.75;5051033;28;20889;-76
2022/04/27 05:02:31;;;;;;;280.85;51.78;;;8.80;99.90;;;7.75;100.00;97769.66;5053376;28;20469;-77
2022/04/27 05:05:00;;;;;;;276.77;49.72;;;8.80;99.90;;;7.77;100.00;97767.63;5053952;28;20458;-76
2022/04/27 05:07:26;;;;;;;270.65;47.13;;;8.80;99.90;;;7.80;100.00;97771.66;5053781;28;20766;-76
2022/04/27 05:09:52;;;;;;;329.95;51.65;;;8.90;99.90;;;7.80;100.00;97774.28;5053465;28;20397;-76
2022/04/27 05:12:17;;;;;;;380.17;59.63;;;8.90;99.90;;;7.83;100.00;97775.66;5053276;28;20766;-75
2022/04/27 05:14:43;;;;;;;316.57;52.27;;;8.90;99.90;;;7.83;100.00;97779.09;5053567;28;20405;-75
2022/04/27 05:17:09;;;;;;;337.70;53.55;;;8.90;99.90;;;7.85;100.00;97784.94;5053472;28;20458;-74
2022/04/27 05:19:37;;;;;;;415.38;62.92;;;8.90;99.90;;;7.88;100.00;97779.25;5053331;28;20708;-75
2022/04/27 05:22:04;;;;;;;352.52;56.60;;;8.90;99.90;;;7.88;100.00;97781.88;5052837;28;20415;-75
2022/04/27 05:24:30;;;;;;;282.92;47.70;;;8.90;99.90;;;7.90;100.00;97779.81;5053638;28;20404;-76
2022/04/27 05:26:56;;;;;;;329.02;52.45;;;8.90;99.90;;;7.95;100.00;97787.84;5053306;28;20443;-77
2022/04/27 05:32:08;;;;;;;380.23;54.70;;;9.00;99.90;;;8.04;100.00;97788.34;5053061;28;20757;-76
2022/04/27 05:34:35;;;;;;;274.13;46.17;;;9.10;99.90;;;8.08;100.00;97798.22;5053309;28;20505;-76
2022/04/27 05:37:01;;;;;;;324.55;53.63;;;9.10;99.90;;;8.10;100.00;97796.16;5053178;28;20399;-76
2022/04/27 05:39:29;;;;;;;416.63;60.07;;;9.20;99.90;;;8.14;100.00;97794.66;5052821;28;20444;-75
2022/04/27 05:41:55;;;;;;;338.88;53.53;;;9.20;99.90;;;8.15;100.00;97792.84;5052434;28;20503;-76
2022/04/27 05:44:24;;;;;;;261.90;44.85;;;9.20;99.90;;;8.18;100.00;97804.78;5050642;28;20413;-77
2022/04/27 05:46:50;;;;;;;311.48;49.50;;;9.20;99.90;;;8.21;100.00;97812.22;5051640;28;20515;-74
2022/04/27 05:49:17;;;;;;;336.00;54.07;;;9.20;99.90;;;8.23;100.00;97812.81;5054570;28;20407;-76
2022/04/27 05:51:43;;;;;;;321.90;49.55;;;9.30;99.90;;;8.25;100.00;97822.13;5056301;28;20404;-76
2022/04/27 05:54:09;;;;;;;356.40;54.50;;;9.30;99.90;;;8.28;100.00;97818.19;5052625;28;20483;-75
2022/04/27 05:56:37;;;;;;;379.52;60.78;;;9.30;99.90;;;8.22;100.00;97821.75;5052728;28;20408;-76
2022/04/27 05:59:03;;;;;;;341.70;53.40;;;9.30;99.90;;;8.21;100.00;97833.31;5051877;28;20891;-76
2022/04/27 06:01:31;;;;;;;335.63;51.50;;;9.30;99.90;;;8.20;100.00;97829.06;5058841;28;20492;-75
2022/04/27 06:04:00;;;;;;;362.77;53.30;;;9.20;99.90;;;8.17;100.00;97827.69;5063917;28;20880;-76
2022/04/27 06:06:26;;;;;;;368.40;59.00;;;9.20;99.90;;;8.16;100.00;97829.53;5070497;28;20856;-75
2022/04/27 06:08:53;;;;;;;415.30;63.60;;;9.20;99.90;;;8.15;100.00;97827.13;5064152;28;20403;-76
2022/04/27 06:11:19;;;;;;;346.85;59.80;;;9.20;99.90;;;8.12;100.00;97838.91;5071069;28;20390;-75
2022/04/27 06:13:47;;;;;;;367.77;65.63;;;9.20;99.90;;;8.14;100.00;97841.31;5072265;28;20400;-75
2022/04/27 06:16:13;;;;;;;297.60;60.63;;;9.20;99.90;;;8.14;100.00;97834.22;5069725;28;20425;-75
2022/04/27 06:18:40;;;;;;;307.55;65.85;;;9.20;99.90;;;8.16;100.00;97836.63;5060371;28;20409;-75
2022/04/27 06:21:06;;;;;;;378.47;69.87;;;9.20;99.90;;;8.18;100.00;97839.06;5071073;28;20502;-75
2022/04/27 06:23:33;;;;;;;436.65;74.05;;;9.20;99.90;;;8.23;100.00;97837.34;5072364;28;20396;-75
2022/04/27 06:25:59;;;;;;;415.20;72.70;;;9.30;99.90;;;8.26;100.00;97841.38;5072273;28;20900;-75
2022/04/27 06:28:25;;;;;;;408.20;75.03;;;9.30;99.90;;;8.26;100.00;97842.19;5070887;28;20495;-75
2022/04/27 06:30:52;;;;;;;362.23;65.70;;;9.30;99.90;;;8.27;100.00;97851.69;5035851;28;20842;-75
2022/04/27 06:33:18;;;;;;;404.85;73.80;;;9.30;99.90;;;8.25;100.00;97837.13;5049185;28;20407;-76
2022/04/27 06:35:45;;;;;;;302.65;63.42;;;9.30;99.90;;;8.23;100.00;97844.44;5064088;28;20407;-77
2022/04/27 06:38:11;;;;;;;333.77;64.10;;;9.30;99.90;;;8.21;100.00;97852.59;5072402;28;20399;-77
2022/04/27 06:40:36;;;;;;;375.77;66.93;;;9.30;99.90;;;8.22;100.00;97856.03;5071833;28;20415;-77
2022/04/27 06:43:02;;;;;;;355.52;60.80;;;9.30;99.90;;;8.21;100.00;97860.50;5071970;28;20432;-77
2022/04/27 06:45:28;;;;;;;471.42;74.38;;;9.30;99.90;;;8.25;100.00;97868.78;5056526;28;20922;-76
2022/04/27 06:47:56;;;;;;;346.65;59.47;;;9.30;99.90;;;8.26;100.00;97862.47;5052652;28;20928;-77
2022/04/27 06:50:22;;;;;;;387.10;65.88;;;9.30;99.90;;;8.33;100.00;97861.38;5062749;28;20875;-75
2022/04/27 06:52:48;;;;;;;351.88;64.03;;;9.40;99.90;;;8.39;100.00;97871.03;5060204;28;20440;-76
2022/04/27 06:55:16;;;;;;;306.13;59.17;;;9.40;99.90;;;8.56;100.00;97873.03;5041559;28;20573;-76
2022/04/27 06:57:42;;;;;;;326.45;59.65;;;9.60;99.90;;;8.76;100.00;97879.59;5047319;28;20433;-76
2022/04/27 07:00:10;;;;;;;250.35;57.97;;;9.80;99.90;;;8.90;100.00;97888.94;5037887;28;20557;-76
2022/04/27 07:02:37;;;;;;;304.73;61.22;;;9.90;99.90;;;9.07;100.00;97891.72;5048461;28;20412;-76
2022/04/27 07:05:06;;;;;;;331.88;65.60;;;10.10;99.90;;;9.08;100.00;97885.41;5041318;28;20424;-82
2022/04/27 07:07:33;;;;;;;288.55;57.10;;;10.20;99.90;;;9.24;100.00;97891.84;5058320;28;20399;-82
2022/04/27 07:09:59;;;;;;;229.60;52.13;;;10.20;99.90;;;9.38;100.00;97897.69;5052502;28;20401;-81
2022/04/27 07:12:25;;;;;;;277.63;57.97;;;10.30;99.90;;;9.41;100.00;97899.84;5046858;28;20413;-82
2022/04/27 07:14:51;;;;;;;236.82;51.78;;;10.40;99.90;;;9.50;100.00;97895.81;5037154;28;20419;-81
2022/04/27 07:17:18;;;;;;;239.35;53.67;;;10.50;99.90;;;9.58;100.00;97901.56;5059727;28;20404;-80
2022/04/27 07:19:44;;;;;;;188.10;45.92;;;10.60;99.90;;;9.60;100.00;97906.63;5045262;28;20418;-80
2022/04/27 07:22:12;;;;;;;195.10;46.92;;;10.60;99.90;;;9.71;100.00;97903.16;5050741;28;20474;-84
2022/04/27 07:24:38;;;;;;;219.65;46.55;;;10.70;99.90;;;9.80;100.00;97912.34;5056627;28;20409;-81
2022/04/27 07:27:05;;;;;;;181.17;45.47;;;10.70;99.90;;;9.78;100.00;97913.59;5042159;28;20415;-80
2022/04/27 07:29:34;;;;;;;252.60;51.35;;;10.80;99.90;;;9.72;100.00;97912.69;5044468;28;20432;-82
2022/04/27 07:32:00;;;;;;;180.40;41.30;;;10.70;99.90;;;9.87;100.00;97907.72;5046434;28;20415;-79
2022/04/27 07:34:26;;;;;;;159.25;41.00;;;10.80;99.90;;;9.91;100.00;97916.81;5037312;28;20417;-83
2022/04/27 07:36:52;;;;;;;155.65;38.15;;;10.90;99.90;;;9.90;100.00;97923.13;5048467;28;20421;-82
2022/04/27 07:39:19;;;;;;;164.23;38.63;;;10.90;99.90;;;9.97;100.00;97917.72;5042285;28;20504;-82
2022/04/27 07:41:45;;;;;;;155.20;36.15;;;10.90;99.90;;;10.06;100.00;97913.66;5056062;28;20417;-84
2022/04/27 07:44:11;;;;;;;135.48;35.72;;;11.00;99.90;;;10.15;100.00;97917.53;5051801;28;20968;-83
2022/04/27 07:46:37;;;;;;;177.60;42.67;;;11.10;99.90;;;10.23;100.00;97921.69;5055331;28;20401;-82
2022/04/27 07:49:03;;;;;;;146.27;38.70;;;11.20;99.90;;;10.30;100.00;97920.50;5064156;28;20470;-81
2022/04/27 07:51:29;;;;;;;116.90;31.75;;;11.30;99.90;;;10.52;100.00;97922.50;5048069;28;20460;-81
2022/04/27 07:53:55;;;;;;;155.85;35.58;;;11.40;99.90;;;10.59;100.00;97936.41;5049510;28;20413;-83
2022/04/27 07:56:23;;;;;;;124.30;30.73;;;11.50;99.90;;;10.58;100.00;97937.44;5066382;28;20415;-79
2022/04/27 07:58:48;;;;;;;161.07;35.77;;;11.50;99.90;;;10.61;100.00;97943.03;5042335;28;20506;-81
2022/04/27 08:01:14;;;;;;;105.30;29.83;;;11.50;99.90;;;10.72;100.00;97936.09;5046429;28;20426;-82
2022/04/27 08:03:40;;;;;;;228.82;43.63;;;11.60;99.90;;;10.66;100.00;97943.16;5044307;28;20420;-80
2022/04/27 08:06:06;;;;;;;158.48;34.58;;;11.60;99.90;;;10.68;100.00;97943.69;5038806;28;20413;-86
2022/04/27 08:08:33;;;;;;;116.53;28.53;;;11.60;99.90;;;10.80;100.00;97946.31;5050036;28;20945;-81
2022/04/27 08:10:59;;;;;;;99.63;26.42;;;11.70;99.90;;;10.91;100.00;97947.28;5049159;28;20404;-85
2022/04/27 08:13:26;;;;;;;157.47;34.30;;;11.80;99.90;;;11.03;100.00;97946.19;5050527;28;20398;-82
2022/04/27 08:15:52;;;;;;;85.05;25.73;;;12.00;99.90;;;11.06;100.00;97948.31;5050520;28;20495;-80
2022/04/27 08:18:19;;;;;;;113.27;28.70;;;12.00;99.90;;;10.80;100.00;97948.94;5050851;28;20500;-83
2022/04/27 08:23:34;;;;;;;116.13;31.35;;;11.70;99.90;;;10.77;100.00;97960.81;5050032;28;20447;-80
2022/04/27 08:26:02;;;;;;;57.03;22.15;;;11.80;99.90;;;10.93;100.00;97963.72;5057868;28;20408;-80
2022/04/27 08:28:30;;;;;;;98.80;26.20;;;11.80;99.90;;;11.12;100.00;97962.47;5049857;28;20942;-80
2022/04/27 08:30:56;;;;;;;51.25;19.40;;;12.00;99.90;;;11.52;100.00;97972.91;5043378;28;20404;-81
2022/04/27 08:33:23;;;;;;;35.05;15.43;;;12.30;99.90;;;11.87;100.00;97964.72;5061716;28;20411;-82
2022/04/27 08:35:49;;;;;;;65.43;18.43;;;12.60;99.90;;;12.16;100.00;97966.16;5056945;28;20416;-80
2022/04/27 08:38:15;;;;;;;75.22;20.27;;;13.00;99.90;;;12.31;100.00;97960.22;5059093;28;20480;-78
2022/04/27 08:40:43;;;;;;;37.78;15.82;;;13.10;99.90;;;12.57;100.00;97963.94;5056423;28;20763;-80
2022/04/27 08:43:10;;;;;;;47.90;17.80;;;13.30;99.90;;;12.87;100.00;97963.44;5056516;28;20401;-80
2022/04/27 08:45:40;;;;;;;28.33;14.43;;;13.60;99.90;;;13.15;100.00;97971.22;5057143;28;20437;-80
2022/04/27 08:48:07;;;;;;;26.30;12.98;;;13.90;99.90;;;13.47;100.00;97961.34;5056790;28;20401;-81
2022/04/27 08:50:34;;;;;;;21.65;12.05;;;14.30;99.90;;;13.82;100.00;97967.97;5056296;28;20401;-82
2022/04/27 08:53:00;;;;;;;30.02;12.65;;;14.50;99.90;;;13.81;100.00;97971.69;5046334;28;20409;-82
2022/04/27 08:55:29;;;;;;;28.08;12.65;;;14.60;99.90;;;13.85;100.00;97972.75;5069990;28;20472;-80
2022/04/27 08:58:08;;;;;;;26.92;12.70;;;14.70;99.90;;;13.59;100.00;97971.81;5066821;28;20820;-82
2022/04/27 09:00:34;;;;;;;19.00;10.73;;;14.50;99.90;;;13.55;100.00;97973.38;5060814;28;20411;-79
2022/04/27 09:03:23;;;;;;;31.35;11.80;;;14.30;99.90;;;13.10;100.00;97974.56;5067249;28;20403;-80
2022/04/27 09:05:52;;;;;;;23.73;12.02;;;14.20;99.90;;;13.27;100.00;97979.00;5075671;28;20865;-84
2022/04/27 09:08:19;;;;;;;27.60;14.10;;;14.10;99.90;;;12.96;100.00;97980.56;5056648;28;20412;-83
2022/04/27 09:10:46;;;;;;;27.63;12.73;;;13.90;99.90;;;13.10;100.00;97979.09;5055504;28;20946;-85
2022/04/27 09:13:12;;;;;;;33.13;14.13;;;13.90;99.90;;;13.11;100.00;97981.50;5057028;28;20429;-87
2022/04/27 09:15:38;;;;;;;35.72;16.05;;;13.90;99.90;;;13.02;100.00;97976.88;5057048;28;20447;-86
2022/04/27 09:21:01;;;;;;;30.33;15.03;;;13.70;99.90;;;12.83;100.00;97975.66;5056275;28;20487;-82
2022/04/27 09:23:37;;;;;;;42.47;17.15;;;13.70;99.90;;;12.83;100.00;97983.63;5056544;28;20397;-82
2022/04/27 09:26:15;;;;;;;32.95;14.88;;;13.70;99.90;;;12.91;100.00;97981.31;5056684;28;20431;-86
2022/04/27 09:28:47;;;;;;;33.45;14.85;;;13.80;99.90;;;12.71;100.00;97981.91;5057005;28;20416;-84
2022/04/27 09:31:26;;;;;;;32.23;16.00;;;13.70;99.90;;;12.66;100.00;97986.34;5056408;28;20417;-84
2022/04/27 09:33:59;;;;;;;30.40;14.95;;;13.60;99.90;;;12.78;100.00;97976.38;5056318;28;20894;-82
2022/04/27 09:36:27;;;;;;;35.25;16.38;;;13.60;99.90;;;12.94;100.00;97980.00;5056577;28;20401;-76
2022/04/27 09:38:56;;;;;;;23.85;12.98;;;13.80;99.90;;;13.31;100.00;97985.41;5052876;28;20404;-75
2022/04/27 09:41:40;;;;;;;19.77;11.40;;;14.10;99.90;;;13.67;100.00;97979.31;5045136;28;20504;-75
2022/04/27 09:44:06;;;;;;;23.65;13.48;;;14.40;99.90;;;13.76;100.00;97979.63;5044261;28;20413;-76
2022/04/27 09:46:40;;;;;;;25.10;12.80;;;14.60;99.90;;;14.04;100.00;97989.91;5044006;28;20410;-77
2022/04/27 09:49:11;;;;;;;20.88;12.45;;;14.80;99.90;;;14.18;100.00;97985.72;5041589;28;20416;-76
2022/04/27 09:51:47;;;;;;;26.77;13.23;;;14.90;99.90;;;14.31;100.00;97987.09;5041627;28;20393;-76
2022/04/27 09:54:19;;;;;;;21.20;12.63;;;15.00;99.90;;;14.31;100.00;97992.44;5042506;28;20417;-76
2022/04/27 09:56:50;;;;;;;20.65;12.25;;;15.00;99.90;;;14.14;100.00;97983.81;5033128;28;20916;-76
2022/04/27 09:59:18;;;;;;;16.48;10.52;;;15.10;99.90;;;14.34;100.00;97984.75;5043815;28;20400;-75
2022/04/27 10:01:45;;;;;;;17.70;10.32;;;15.10;99.90;;;14.36;100.00;97989.78;5052240;28;20414;-76
2022/04/27 10:04:13;;;;;;;13.50;9.40;;;15.20;99.90;;;14.34;100.00;97989.25;5040823;28;20411;-75
2022/04/27 10:06:41;;;;;;;15.98;9.50;;;15.20;99.90;;;14.11;100.00;97990.50;5041087;28;20394;-76
2022/04/27 10:09:06;;;;;;;12.32;8.85;;;14.80;99.90;;;14.34;100.00;97990.06;5040624;28;20952;-79
2022/04/27 10:11:33;;;;;;;13.33;9.40;;;15.00;99.90;;;14.54;100.00;97993.88;5042602;28;20429;-79
2022/04/27 10:14:00;;;;;;;10.30;8.18;;;15.30;99.90;;;14.84;100.00;98003.84;5041874;28;20499;-81
2022/04/27 10:16:27;;;;;;;10.10;7.93;;;15.50;99.90;;;15.03;100.00;98002.28;5044077;28;20403;-79
2022/04/27 10:18:53;;;;;;;9.90;7.55;;;15.70;99.90;;;15.42;100.00;98002.56;5040795;28;20399;-80
2022/04/27 10:21:57;;;;;;;9.75;7.32;;;16.10;99.90;;;15.53;100.00;98006.88;5041764;28;20421;-80